sensor_id;sensor_type;location;lat;lon;timestamp;P1;durP1;ratioP1;P2;durP2;ratioP2
15982;SDS011;14442;50.196;8.096;2022-07-23T00:01:18;6.97;;;4.67;;
15982;SDS011;14442;50.196;8.096;2022-07-23T00:03:45;4.90;;;4.40;;
15982;SDS011;14442;50.196;8.096;2022-07-23T00:06:11;4.83;;;4.33;;
15982;SDS011;14442;50.196;8.096;2022-07-23T00:08:38;5.40;;;4.77;;
15982;SDS011;14442;50.196;8.096;2022-07-23T00:11:05;5.10;;;4.67;;
15982;SDS011;14442;50.196;8.096;2022-07-23T00:13:32;5.33;;;4.50;;
15982;SDS011;14442;50.196;8.096;2022-07-23T00:15:58;4.60;;;4.20;;
15982;SDS011;14442;50.196;8.096;2022-07-23T00:18:27;5.47;;;5.07;;
15982;SDS011;14442;50.196;8.096;2022-07-23T00:20:53;4.93;;;4.57;;
15982;SDS011;14442;50.196;8.096;2022-07-23T00:23:20;5.37;;;4.87;;
15982;SDS011;14442;50.196;8.096;2022-07-23T00:25:47;4.53;;;4.23;;
15982;SDS011;14442;50.196;8.096;2022-07-23T00:28:14;4.73;;;4.17;;
15982;SDS011;14442;50.196;8.096;2022-07-23T00:30:40;4.93;;;4.53;;
15982;SDS011;14442;50.196;8.096;2022-07-23T00:33:07;5.17;;;4.87;;
15982;SDS011;14442;50.196;8.096;2022-07-23T00:35:36;5.63;;;4.30;;
15982;SDS011;14442;50.196;8.096;2022-07-23T00:38:05;4.83;;;4.33;;
15982;SDS011;14442;50.196;8.096;2022-07-23T00:40:34;5.60;;;5.10;;
15982;SDS011;14442;50.196;8.096;2022-07-23T00:43:02;7.77;;;4.67;;
15982;SDS011;14442;50.196;8.096;2022-07-23T00:45:29;4.70;;;4.37;;
15982;SDS011;14442;50.196;8.096;2022-07-23T00:47:56;6.50;;;5.53;;
15982;SDS011;14442;50.196;8.096;2022-07-23T00:50:23;5.00;;;4.60;;
15982;SDS011;14442;50.196;8.096;2022-07-23T00:52:52;5.63;;;5.23;;
15982;SDS011;14442;50.196;8.096;2022-07-23T00:55:19;6.00;;;4.90;;
15982;SDS011;14442;50.196;8.096;2022-07-23T00:57:46;4.80;;;4.50;;
15982;SDS011;14442;50.196;8.096;2022-07-23T01:00:14;5.40;;;4.90;;
15982;SDS011;14442;50.196;8.096;2022-07-23T01:02:41;5.40;;;4.90;;
15982;SDS011;14442;50.196;8.096;2022-07-23T01:05:09;5.80;;;5.20;;
15982;SDS011;14442;50.196;8.096;2022-07-23T01:07:35;6.03;;;5.10;;
15982;SDS011;14442;50.196;8.096;2022-07-23T01:10:05;6.50;;;5.90;;
15982;SDS011;14442;50.196;8.096;2022-07-23T01:12:53;6.50;;;5.57;;
15982;SDS011;14442;50.196;8.096;2022-07-23T01:15:21;6.43;;;5.83;;
15982;SDS011;14442;50.196;8.096;2022-07-23T01:17:48;5.73;;;5.23;;
15982;SDS011;14442;50.196;8.096;2022-07-23T01:20:14;5.33;;;4.83;;
15982;SDS011;14442;50.196;8.096;2022-07-23T01:22:42;5.73;;;5.33;;
15982;SDS011;14442;50.196;8.096;2022-07-23T01:25:09;6.20;;;5.63;;
15982;SDS011;14442;50.196;8.096;2022-07-23T01:27:36;6.37;;;5.87;;
15982;SDS011;14442;50.196;8.096;2022-07-23T01:30:03;6.27;;;5.33;;
15982;SDS011;14442;50.196;8.096;2022-07-23T01:32:31;6.00;;;5.43;;
15982;SDS011;14442;50.196;8.096;2022-07-23T01:34:58;6.20;;;5.70;;
15982;SDS011;14442;50.196;8.096;2022-07-23T01:37:25;6.20;;;5.60;;
15982;SDS011;14442;50.196;8.096;2022-07-23T01:39:53;6.07;;;5.57;;
15982;SDS011;14442;50.196;8.096;2022-07-23T01:42:19;6.73;;;5.83;;
15982;SDS011;14442;50.196;8.096;2022-07-23T01:44:46;6.23;;;5.73;;
15982;SDS011;14442;50.196;8.096;2022-07-23T01:47:13;6.30;;;5.80;;
15982;SDS011;14442;50.196;8.096;2022-07-23T01:49:40;6.07;;;5.50;;
15982;SDS011;14442;50.196;8.096;2022-07-23T01:52:06;6.53;;;5.93;;
15982;SDS011;14442;50.196;8.096;2022-07-23T01:54:36;6.87;;;6.33;;
15982;SDS011;14442;50.196;8.096;2022-07-23T01:57:04;5.70;;;5.10;;
15982;SDS011;14442;50.196;8.096;2022-07-23T01:59:31;6.27;;;5.67;;
15982;SDS011;14442;50.196;8.096;2022-07-23T02:01:58;6.70;;;6.13;;
15982;SDS011;14442;50.196;8.096;2022-07-23T02:04:25;6.70;;;6.10;;
15982;SDS011;14442;50.196;8.096;2022-07-23T02:06:52;6.30;;;5.67;;
15982;SDS011;14442;50.196;8.096;2022-07-23T02:09:19;6.33;;;5.83;;
15982;SDS011;14442;50.196;8.096;2022-07-23T02:11:46;5.93;;;5.43;;
15982;SDS011;14442;50.196;8.096;2022-07-23T02:14:14;6.43;;;5.87;;
15982;SDS011;14442;50.196;8.096;2022-07-23T02:16:41;6.03;;;5.43;;
15982;SDS011;14442;50.196;8.096;2022-07-23T02:19:07;5.63;;;5.13;;
15982;SDS011;14442;50.196;8.096;2022-07-23T02:21:34;6.40;;;5.90;;
15982;SDS011;14442;50.196;8.096;2022-07-23T02:24:01;6.10;;;5.53;;
15982;SDS011;14442;50.196;8.096;2022-07-23T02:26:28;6.00;;;5.40;;
15982;SDS011;14442;50.196;8.096;2022-07-23T02:28:54;6.70;;;6.00;;
15982;SDS011;14442;50.196;8.096;2022-07-23T02:31:22;5.77;;;5.37;;
15982;SDS011;14442;50.196;8.096;2022-07-23T02:33:49;6.20;;;5.70;;
15982;SDS011;14442;50.196;8.096;2022-07-23T02:36:16;5.90;;;5.30;;
15982;SDS011;14442;50.196;8.096;2022-07-23T02:38:42;5.97;;;5.47;;
15982;SDS011;14442;50.196;8.096;2022-07-23T02:41:09;6.37;;;5.77;;
15982;SDS011;14442;50.196;8.096;2022-07-23T02:43:36;6.37;;;5.87;;
15982;SDS011;14442;50.196;8.096;2022-07-23T02:46:02;6.43;;;5.83;;
15982;SDS011;14442;50.196;8.096;2022-07-23T02:48:31;6.63;;;5.90;;
15982;SDS011;14442;50.196;8.096;2022-07-23T02:50:57;6.10;;;5.53;;
15982;SDS011;14442;50.196;8.096;2022-07-23T02:53:24;5.90;;;5.50;;
15982;SDS011;14442;50.196;8.096;2022-07-23T02:55:51;5.73;;;5.20;;
15982;SDS011;14442;50.196;8.096;2022-07-23T02:58:18;6.03;;;5.53;;
15982;SDS011;14442;50.196;8.096;2022-07-23T03:00:45;6.23;;;5.57;;
15982;SDS011;14442;50.196;8.096;2022-07-23T03:03:12;6.00;;;5.40;;
15982;SDS011;14442;50.196;8.096;2022-07-23T03:05:40;6.67;;;5.97;;
15982;SDS011;14442;50.196;8.096;2022-07-23T03:08:06;6.97;;;6.37;;
15982;SDS011;14442;50.196;8.096;2022-07-23T03:10:33;6.37;;;5.87;;
15982;SDS011;14442;50.196;8.096;2022-07-23T03:13:00;6.40;;;5.83;;
15982;SDS011;14442;50.196;8.096;2022-07-23T03:15:26;6.57;;;6.07;;
15982;SDS011;14442;50.196;8.096;2022-07-23T03:17:53;5.93;;;5.43;;
15982;SDS011;14442;50.196;8.096;2022-07-23T03:20:20;8.33;;;6.47;;
15982;SDS011;14442;50.196;8.096;2022-07-23T03:22:48;6.60;;;6.00;;
15982;SDS011;14442;50.196;8.096;2022-07-23T03:25:15;6.47;;;5.97;;
15982;SDS011;14442;50.196;8.096;2022-07-23T03:27:41;5.97;;;5.47;;
15982;SDS011;14442;50.196;8.096;2022-07-23T03:30:10;6.97;;;6.37;;
15982;SDS011;14442;50.196;8.096;2022-07-23T03:32:37;6.67;;;6.07;;
15982;SDS011;14442;50.196;8.096;2022-07-23T03:35:04;6.87;;;6.33;;
15982;SDS011;14442;50.196;8.096;2022-07-23T03:37:32;6.80;;;6.20;;
15982;SDS011;14442;50.196;8.096;2022-07-23T03:40:00;6.80;;;6.23;;
15982;SDS011;14442;50.196;8.096;2022-07-23T03:42:26;6.67;;;6.17;;
15982;SDS011;14442;50.196;8.096;2022-07-23T03:44:53;6.50;;;6.00;;
15982;SDS011;14442;50.196;8.096;2022-07-23T03:47:20;7.03;;;6.43;;
15982;SDS011;14442;50.196;8.096;2022-07-23T03:49:47;6.83;;;6.20;;
15982;SDS011;14442;50.196;8.096;2022-07-23T03:52:14;7.20;;;6.60;;
15982;SDS011;14442;50.196;8.096;2022-07-23T03:54:41;6.27;;;5.83;;
15982;SDS011;14442;50.196;8.096;2022-07-23T03:57:09;6.90;;;6.30;;
15982;SDS011;14442;50.196;8.096;2022-07-23T03:59:35;6.50;;;6.00;;
15982;SDS011;14442;50.196;8.096;2022-07-23T04:02:02;7.30;;;6.53;;
15982;SDS011;14442;50.196;8.096;2022-07-23T04:04:29;8.17;;;6.97;;
15982;SDS011;14442;50.196;8.096;2022-07-23T04:06:56;6.93;;;6.43;;
15982;SDS011;14442;50.196;8.096;2022-07-23T04:09:22;7.07;;;6.37;;
15982;SDS011;14442;50.196;8.096;2022-07-23T04:11:49;6.67;;;6.07;;
15982;SDS011;14442;50.196;8.096;2022-07-23T04:14:17;6.93;;;6.20;;
15982;SDS011;14442;50.196;8.096;2022-07-23T04:16:44;6.90;;;6.40;;
15982;SDS011;14442;50.196;8.096;2022-07-23T04:19:10;6.27;;;5.80;;
15982;SDS011;14442;50.196;8.096;2022-07-23T04:21:37;6.83;;;6.17;;
15982;SDS011;14442;50.196;8.096;2022-07-23T04:24:04;7.23;;;6.63;;
15982;SDS011;14442;50.196;8.096;2022-07-23T04:26:31;7.27;;;6.57;;
15982;SDS011;14442;50.196;8.096;2022-07-23T04:28:57;7.00;;;6.47;;
15982;SDS011;14442;50.196;8.096;2022-07-23T04:31:25;6.80;;;6.20;;
15982;SDS011;14442;50.196;8.096;2022-07-23T04:33:52;6.90;;;6.30;;
15982;SDS011;14442;50.196;8.096;2022-07-23T04:36:19;7.33;;;6.63;;
15982;SDS011;14442;50.196;8.096;2022-07-23T04:38:45;6.63;;;6.03;;
15982;SDS011;14442;50.196;8.096;2022-07-23T04:41:12;7.63;;;6.93;;
15982;SDS011;14442;50.196;8.096;2022-07-23T04:43:39;7.33;;;6.73;;
15982;SDS011;14442;50.196;8.096;2022-07-23T04:46:05;7.53;;;6.83;;
15982;SDS011;14442;50.196;8.096;2022-07-23T04:48:34;7.50;;;6.80;;
15982;SDS011;14442;50.196;8.096;2022-07-23T04:51:00;7.00;;;6.40;;
15982;SDS011;14442;50.196;8.096;2022-07-23T04:53:27;7.40;;;6.80;;
15982;SDS011;14442;50.196;8.096;2022-07-23T04:55:54;7.43;;;6.83;;
15982;SDS011;14442;50.196;8.096;2022-07-23T04:58:21;7.23;;;6.67;;
15982;SDS011;14442;50.196;8.096;2022-07-23T05:00:48;8.13;;;7.17;;
15982;SDS011;14442;50.196;8.096;2022-07-23T05:03:14;7.77;;;7.07;;
15982;SDS011;14442;50.196;8.096;2022-07-23T05:05:42;8.67;;;7.30;;
15982;SDS011;14442;50.196;8.096;2022-07-23T05:08:09;8.90;;;7.33;;
15982;SDS011;14442;50.196;8.096;2022-07-23T05:10:36;7.70;;;7.10;;
15982;SDS011;14442;50.196;8.096;2022-07-23T05:13:03;8.70;;;7.80;;
15982;SDS011;14442;50.196;8.096;2022-07-23T05:15:29;8.00;;;7.20;;
15982;SDS011;14442;50.196;8.096;2022-07-23T05:17:56;8.73;;;7.93;;
15982;SDS011;14442;50.196;8.096;2022-07-23T05:20:23;9.63;;;8.53;;
15982;SDS011;14442;50.196;8.096;2022-07-23T05:22:51;8.13;;;7.33;;
15982;SDS011;14442;50.196;8.096;2022-07-23T05:25:18;8.30;;;7.50;;
15982;SDS011;14442;50.196;8.096;2022-07-23T05:27:44;7.17;;;6.47;;
15982;SDS011;14442;50.196;8.096;2022-07-23T05:30:11;8.27;;;7.67;;
15982;SDS011;14442;50.196;8.096;2022-07-23T05:32:38;7.63;;;6.93;;
15982;SDS011;14442;50.196;8.096;2022-07-23T05:35:05;8.40;;;7.73;;
15982;SDS011;14442;50.196;8.096;2022-07-23T05:37:33;9.07;;;8.27;;
15982;SDS011;14442;50.196;8.096;2022-07-23T05:40:02;8.73;;;7.90;;
15982;SDS011;14442;50.196;8.096;2022-07-23T05:42:31;8.13;;;7.10;;
15982;SDS011;14442;50.196;8.096;2022-07-23T05:44:57;8.30;;;7.60;;
15982;SDS011;14442;50.196;8.096;2022-07-23T05:47:24;8.63;;;7.83;;
15982;SDS011;14442;50.196;8.096;2022-07-23T05:49:51;8.30;;;7.60;;
15982;SDS011;14442;50.196;8.096;2022-07-23T05:52:18;8.83;;;7.80;;
15982;SDS011;14442;50.196;8.096;2022-07-23T05:54:45;8.67;;;7.77;;
15982;SDS011;14442;50.196;8.096;2022-07-23T05:57:13;8.17;;;7.53;;
15982;SDS011;14442;50.196;8.096;2022-07-23T05:59:39;8.77;;;8.07;;
15982;SDS011;14442;50.196;8.096;2022-07-23T06:02:06;8.90;;;8.10;;
15982;SDS011;14442;50.196;8.096;2022-07-23T06:04:33;9.27;;;8.37;;
15982;SDS011;14442;50.196;8.096;2022-07-23T06:07:00;8.43;;;7.67;;
15982;SDS011;14442;50.196;8.096;2022-07-23T06:09:27;7.77;;;7.13;;
15982;SDS011;14442;50.196;8.096;2022-07-23T06:11:53;8.10;;;7.43;;
15982;SDS011;14442;50.196;8.096;2022-07-23T06:14:21;8.17;;;7.37;;
15982;SDS011;14442;50.196;8.096;2022-07-23T06:16:48;8.50;;;7.70;;
15982;SDS011;14442;50.196;8.096;2022-07-23T06:19:15;8.67;;;7.90;;
15982;SDS011;14442;50.196;8.096;2022-07-23T06:21:42;9.93;;;8.00;;
15982;SDS011;14442;50.196;8.096;2022-07-23T06:24:09;9.10;;;8.23;;
15982;SDS011;14442;50.196;8.096;2022-07-23T06:26:35;8.90;;;8.13;;
15982;SDS011;14442;50.196;8.096;2022-07-23T06:29:02;8.87;;;8.07;;
15982;SDS011;14442;50.196;8.096;2022-07-23T06:31:30;8.33;;;7.60;;
15982;SDS011;14442;50.196;8.096;2022-07-23T06:33:57;9.17;;;8.20;;
15982;SDS011;14442;50.196;8.096;2022-07-23T06:36:24;9.47;;;8.00;;
15982;SDS011;14442;50.196;8.096;2022-07-23T06:38:50;8.80;;;7.83;;
15982;SDS011;14442;50.196;8.096;2022-07-23T06:41:17;9.00;;;8.27;;
15982;SDS011;14442;50.196;8.096;2022-07-23T06:43:44;8.20;;;7.47;;
15982;SDS011;14442;50.196;8.096;2022-07-23T06:46:11;8.57;;;7.77;;
15982;SDS011;14442;50.196;8.096;2022-07-23T06:48:39;8.93;;;8.17;;
15982;SDS011;14442;50.196;8.096;2022-07-23T06:51:05;7.87;;;7.07;;
15982;SDS011;14442;50.196;8.096;2022-07-23T06:53:32;11.50;;;7.30;;
15982;SDS011;14442;50.196;8.096;2022-07-23T06:55:59;12.77;;;7.47;;
15982;SDS011;14442;50.196;8.096;2022-07-23T06:58:26;13.17;;;7.60;;
15982;SDS011;14442;50.196;8.096;2022-07-23T07:00:52;10.73;;;7.27;;
15982;SDS011;14442;50.196;8.096;2022-07-23T07:03:19;12.40;;;7.33;;
15982;SDS011;14442;50.196;8.096;2022-07-23T07:05:47;15.97;;;7.23;;
15982;SDS011;14442;50.196;8.096;2022-07-23T07:08:14;15.77;;;7.67;;
15982;SDS011;14442;50.196;8.096;2022-07-23T07:10:41;10.87;;;6.33;;
15982;SDS011;14442;50.196;8.096;2022-07-23T07:13:08;10.77;;;6.47;;
15982;SDS011;14442;50.196;8.096;2022-07-23T07:15:35;7.93;;;6.53;;
15982;SDS011;14442;50.196;8.096;2022-07-23T07:18:02;13.03;;;6.17;;
15982;SDS011;14442;50.196;8.096;2022-07-23T07:20:28;8.20;;;5.73;;
15982;SDS011;14442;50.196;8.096;2022-07-23T07:22:57;11.93;;;6.30;;
15982;SDS011;14442;50.196;8.096;2022-07-23T07:25:23;13.83;;;6.70;;
15982;SDS011;14442;50.196;8.096;2022-07-23T07:27:50;9.37;;;6.70;;
15982;SDS011;14442;50.196;8.096;2022-07-23T07:30:17;10.77;;;6.07;;
15982;SDS011;14442;50.196;8.096;2022-07-23T07:32:44;10.57;;;6.03;;
15982;SDS011;14442;50.196;8.096;2022-07-23T07:35:10;10.93;;;5.67;;
15982;SDS011;14442;50.196;8.096;2022-07-23T07:37:37;7.17;;;6.27;;
15982;SDS011;14442;50.196;8.096;2022-07-23T07:40:06;10.17;;;5.67;;
15982;SDS011;14442;50.196;8.096;2022-07-23T07:42:33;8.23;;;5.13;;
15982;SDS011;14442;50.196;8.096;2022-07-23T07:45:00;9.30;;;6.00;;
15982;SDS011;14442;50.196;8.096;2022-07-23T07:47:27;8.03;;;5.67;;
15982;SDS011;14442;50.196;8.096;2022-07-23T07:49:53;8.73;;;5.73;;
15982;SDS011;14442;50.196;8.096;2022-07-23T07:52:21;8.37;;;5.57;;
15982;SDS011;14442;50.196;8.096;2022-07-23T07:54:47;11.60;;;5.60;;
15982;SDS011;14442;50.196;8.096;2022-07-23T07:57:16;8.60;;;5.27;;
15982;SDS011;14442;50.196;8.096;2022-07-23T07:59:42;8.07;;;5.37;;
15982;SDS011;14442;50.196;8.096;2022-07-23T08:02:09;6.97;;;4.73;;
15982;SDS011;14442;50.196;8.096;2022-07-23T08:04:36;7.60;;;4.97;;
15982;SDS011;14442;50.196;8.096;2022-07-23T08:07:03;8.80;;;5.87;;
15982;SDS011;14442;50.196;8.096;2022-07-23T08:09:29;11.37;;;5.23;;
15982;SDS011;14442;50.196;8.096;2022-07-23T08:11:56;6.13;;;4.77;;
15982;SDS011;14442;50.196;8.096;2022-07-23T08:14:24;7.13;;;5.17;;
15982;SDS011;14442;50.196;8.096;2022-07-23T08:16:51;5.60;;;4.97;;
15982;SDS011;14442;50.196;8.096;2022-07-23T08:19:18;8.23;;;5.53;;
15982;SDS011;14442;50.196;8.096;2022-07-23T08:21:44;8.80;;;5.17;;
15982;SDS011;14442;50.196;8.096;2022-07-23T08:24:11;7.70;;;5.70;;
15982;SDS011;14442;50.196;8.096;2022-07-23T08:26:38;5.43;;;4.93;;
15982;SDS011;14442;50.196;8.096;2022-07-23T08:29:05;9.23;;;4.60;;
15982;SDS011;14442;50.196;8.096;2022-07-23T08:31:34;8.27;;;5.23;;
15982;SDS011;14442;50.196;8.096;2022-07-23T08:34:00;10.27;;;4.97;;
15982;SDS011;14442;50.196;8.096;2022-07-23T08:36:27;19.50;;;5.73;;
15982;SDS011;14442;50.196;8.096;2022-07-23T08:38:57;19.10;;;5.97;;
15982;SDS011;14442;50.196;8.096;2022-07-23T08:41:23;13.17;;;5.37;;
15982;SDS011;14442;50.196;8.096;2022-07-23T08:43:50;9.33;;;5.13;;
15982;SDS011;14442;50.196;8.096;2022-07-23T08:46:18;15.23;;;5.40;;
15982;SDS011;14442;50.196;8.096;2022-07-23T08:48:47;13.60;;;5.43;;
15982;SDS011;14442;50.196;8.096;2022-07-23T08:51:15;10.70;;;4.83;;
15982;SDS011;14442;50.196;8.096;2022-07-23T08:53:43;6.97;;;4.53;;
15982;SDS011;14442;50.196;8.096;2022-07-23T08:56:11;7.80;;;4.63;;
15982;SDS011;14442;50.196;8.096;2022-07-23T08:58:38;12.23;;;4.67;;
15982;SDS011;14442;50.196;8.096;2022-07-23T09:01:04;8.40;;;4.13;;
15982;SDS011;14442;50.196;8.096;2022-07-23T09:03:32;8.30;;;4.50;;
15982;SDS011;14442;50.196;8.096;2022-07-23T09:06:02;6.47;;;4.47;;
15982;SDS011;14442;50.196;8.096;2022-07-23T09:08:33;6.77;;;4.50;;
15982;SDS011;14442;50.196;8.096;2022-07-23T09:11:02;8.40;;;4.13;;
15982;SDS011;14442;50.196;8.096;2022-07-23T09:13:31;6.30;;;4.13;;
15982;SDS011;14442;50.196;8.096;2022-07-23T09:16:01;7.63;;;3.90;;
15982;SDS011;14442;50.196;8.096;2022-07-23T09:18:31;4.30;;;3.90;;
15982;SDS011;14442;50.196;8.096;2022-07-23T09:21:12;4.47;;;4.07;;
15982;SDS011;14442;50.196;8.096;2022-07-23T09:23:44;5.37;;;4.00;;
15982;SDS011;14442;50.196;8.096;2022-07-23T09:26:16;5.37;;;3.57;;
15982;SDS011;14442;50.196;8.096;2022-07-23T09:28:52;6.03;;;3.83;;
15982;SDS011;14442;50.196;8.096;2022-07-23T09:31:21;7.53;;;4.10;;
15982;SDS011;14442;50.196;8.096;2022-07-23T09:33:48;3.60;;;3.27;;
15982;SDS011;14442;50.196;8.096;2022-07-23T09:36:17;5.10;;;3.50;;
15982;SDS011;14442;50.196;8.096;2022-07-23T09:38:53;5.67;;;3.60;;
15982;SDS011;14442;50.196;8.096;2022-07-23T09:41:20;4.07;;;3.70;;
15982;SDS011;14442;50.196;8.096;2022-07-23T09:43:50;4.70;;;3.50;;
15982;SDS011;14442;50.196;8.096;2022-07-23T09:46:22;4.40;;;3.77;;
15982;SDS011;14442;50.196;8.096;2022-07-23T09:48:50;3.70;;;3.40;;
15982;SDS011;14442;50.196;8.096;2022-07-23T09:51:19;4.83;;;3.00;;
15982;SDS011;14442;50.196;8.096;2022-07-23T09:53:51;4.30;;;3.33;;
15982;SDS011;14442;50.196;8.096;2022-07-23T09:56:17;3.83;;;3.43;;
15982;SDS011;14442;50.196;8.096;2022-07-23T09:58:47;4.10;;;3.80;;
15982;SDS011;14442;50.196;8.096;2022-07-23T10:01:16;3.60;;;3.30;;
15982;SDS011;14442;50.196;8.096;2022-07-23T10:03:44;3.90;;;3.60;;
15982;SDS011;14442;50.196;8.096;2022-07-23T10:06:12;3.73;;;3.43;;
15982;SDS011;14442;50.196;8.096;2022-07-23T10:08:41;3.77;;;3.40;;
15982;SDS011;14442;50.196;8.096;2022-07-23T10:11:11;3.50;;;3.30;;
15982;SDS011;14442;50.196;8.096;2022-07-23T10:13:39;4.20;;;3.20;;
15982;SDS011;14442;50.196;8.096;2022-07-23T10:16:20;3.43;;;3.20;;
15982;SDS011;14442;50.196;8.096;2022-07-23T10:18:47;3.50;;;3.30;;
15982;SDS011;14442;50.196;8.096;2022-07-23T10:21:16;3.90;;;3.60;;
15982;SDS011;14442;50.196;8.096;2022-07-23T10:23:58;3.50;;;3.20;;
15982;SDS011;14442;50.196;8.096;2022-07-23T10:26:35;4.30;;;3.20;;
15982;SDS011;14442;50.196;8.096;2022-07-23T10:29:10;3.70;;;3.13;;
15982;SDS011;14442;50.196;8.096;2022-07-23T10:31:48;3.37;;;3.07;;
15982;SDS011;14442;50.196;8.096;2022-07-23T10:34:23;4.17;;;3.67;;
15982;SDS011;14442;50.196;8.096;2022-07-23T10:36:58;4.40;;;3.70;;
15982;SDS011;14442;50.196;8.096;2022-07-23T10:39:32;4.13;;;3.83;;
15982;SDS011;14442;50.196;8.096;2022-07-23T10:42:09;10.17;;;3.77;;
15982;SDS011;14442;50.196;8.096;2022-07-23T10:44:38;4.80;;;3.80;;
15982;SDS011;14442;50.196;8.096;2022-07-23T10:47:07;4.10;;;3.67;;
15982;SDS011;14442;50.196;8.096;2022-07-23T10:49:47;4.63;;;4.10;;
15982;SDS011;14442;50.196;8.096;2022-07-23T10:52:18;3.60;;;3.23;;
15982;SDS011;14442;50.196;8.096;2022-07-23T10:54:48;5.27;;;3.70;;
15982;SDS011;14442;50.196;8.096;2022-07-23T10:57:16;3.93;;;3.67;;
15982;SDS011;14442;50.196;8.096;2022-07-23T11:02:57;4.03;;;3.20;;
15982;SDS011;14442;50.196;8.096;2022-07-23T11:05:26;3.77;;;3.47;;
15982;SDS011;14442;50.196;8.096;2022-07-23T11:08:12;3.33;;;3.03;;
15982;SDS011;14442;50.196;8.096;2022-07-23T11:10:46;3.53;;;3.23;;
15982;SDS011;14442;50.196;8.096;2022-07-23T11:13:25;3.57;;;3.30;;
15982;SDS011;14442;50.196;8.096;2022-07-23T11:16:13;4.03;;;3.17;;
15982;SDS011;14442;50.196;8.096;2022-07-23T11:18:57;3.50;;;3.00;;
15982;SDS011;14442;50.196;8.096;2022-07-23T11:21:40;3.87;;;3.50;;
15982;SDS011;14442;50.196;8.096;2022-07-23T11:24:18;3.50;;;3.20;;
15982;SDS011;14442;50.196;8.096;2022-07-23T11:26:54;3.57;;;3.37;;
15982;SDS011;14442;50.196;8.096;2022-07-23T11:29:41;3.47;;;3.27;;
15982;SDS011;14442;50.196;8.096;2022-07-23T11:32:18;3.30;;;3.10;;
15982;SDS011;14442;50.196;8.096;2022-07-23T11:34:55;3.87;;;3.57;;
15982;SDS011;14442;50.196;8.096;2022-07-23T11:37:30;3.97;;;3.43;;
15982;SDS011;14442;50.196;8.096;2022-07-23T11:40:04;3.80;;;3.50;;
15982;SDS011;14442;50.196;8.096;2022-07-23T11:42:34;3.50;;;3.30;;
15982;SDS011;14442;50.196;8.096;2022-07-23T11:45:03;3.77;;;3.57;;
15982;SDS011;14442;50.196;8.096;2022-07-23T11:47:31;4.40;;;3.03;;
15982;SDS011;14442;50.196;8.096;2022-07-23T11:49:59;3.90;;;3.10;;
15982;SDS011;14442;50.196;8.096;2022-07-23T11:52:27;3.73;;;3.53;;
15982;SDS011;14442;50.196;8.096;2022-07-23T11:54:55;4.53;;;3.43;;
15982;SDS011;14442;50.196;8.096;2022-07-23T11:57:24;3.83;;;3.53;;
15982;SDS011;14442;50.196;8.096;2022-07-23T11:59:54;3.60;;;3.40;;
15982;SDS011;14442;50.196;8.096;2022-07-23T12:02:23;3.87;;;3.57;;
15982;SDS011;14442;50.196;8.096;2022-07-23T12:04:51;3.67;;;3.47;;
15982;SDS011;14442;50.196;8.096;2022-07-23T12:07:23;3.60;;;3.40;;
15982;SDS011;14442;50.196;8.096;2022-07-23T12:09:55;3.50;;;3.30;;
15982;SDS011;14442;50.196;8.096;2022-07-23T12:12:23;3.90;;;3.60;;
15982;SDS011;14442;50.196;8.096;2022-07-23T12:14:50;3.60;;;3.40;;
15982;SDS011;14442;50.196;8.096;2022-07-23T12:17:21;3.60;;;3.40;;
15982;SDS011;14442;50.196;8.096;2022-07-23T12:19:54;3.53;;;3.33;;
15982;SDS011;14442;50.196;8.096;2022-07-23T12:22:21;3.70;;;3.37;;
15982;SDS011;14442;50.196;8.096;2022-07-23T12:24:52;3.70;;;3.40;;
15982;SDS011;14442;50.196;8.096;2022-07-23T12:27:20;3.57;;;3.33;;
15982;SDS011;14442;50.196;8.096;2022-07-23T12:29:47;3.47;;;3.27;;
15982;SDS011;14442;50.196;8.096;2022-07-23T12:32:17;3.80;;;3.50;;
15982;SDS011;14442;50.196;8.096;2022-07-23T12:34:47;3.20;;;2.90;;
15982;SDS011;14442;50.196;8.096;2022-07-23T12:37:25;3.53;;;3.33;;
15982;SDS011;14442;50.196;8.096;2022-07-23T12:39:53;3.87;;;3.57;;
15982;SDS011;14442;50.196;8.096;2022-07-23T12:42:19;4.17;;;3.87;;
15982;SDS011;14442;50.196;8.096;2022-07-23T12:45:06;3.40;;;3.20;;
15982;SDS011;14442;50.196;8.096;2022-07-23T12:50:35;3.90;;;3.60;;
15982;SDS011;14442;50.196;8.096;2022-07-23T12:53:07;3.40;;;3.20;;
15982;SDS011;14442;50.196;8.096;2022-07-23T12:55:35;3.50;;;3.20;;
15982;SDS011;14442;50.196;8.096;2022-07-23T12:58:07;3.20;;;3.00;;
15982;SDS011;14442;50.196;8.096;2022-07-23T13:00:52;3.30;;;3.10;;
15982;SDS011;14442;50.196;8.096;2022-07-23T13:03:22;3.30;;;3.10;;
15982;SDS011;14442;50.196;8.096;2022-07-23T13:05:51;3.23;;;3.03;;
15982;SDS011;14442;50.196;8.096;2022-07-23T13:08:18;3.13;;;3.00;;
15982;SDS011;14442;50.196;8.096;2022-07-23T13:10:44;3.30;;;3.10;;
15982;SDS011;14442;50.196;8.096;2022-07-23T13:13:13;3.60;;;3.40;;
15982;SDS011;14442;50.196;8.096;2022-07-23T13:15:40;4.13;;;3.20;;
15982;SDS011;14442;50.196;8.096;2022-07-23T13:18:08;3.20;;;3.00;;
15982;SDS011;14442;50.196;8.096;2022-07-23T13:20:35;4.10;;;3.80;;
15982;SDS011;14442;50.196;8.096;2022-07-23T13:23:04;3.60;;;3.30;;
15982;SDS011;14442;50.196;8.096;2022-07-23T13:25:32;3.70;;;3.50;;
15982;SDS011;14442;50.196;8.096;2022-07-23T13:27:59;3.53;;;3.33;;
15982;SDS011;14442;50.196;8.096;2022-07-23T13:30:25;3.37;;;3.17;;
15982;SDS011;14442;50.196;8.096;2022-07-23T13:32:52;3.50;;;3.20;;
15982;SDS011;14442;50.196;8.096;2022-07-23T13:35:19;3.43;;;3.13;;
15982;SDS011;14442;50.196;8.096;2022-07-23T13:37:46;3.60;;;3.40;;
15982;SDS011;14442;50.196;8.096;2022-07-23T13:40:14;3.67;;;3.37;;
15982;SDS011;14442;50.196;8.096;2022-07-23T13:42:41;2.87;;;2.77;;
15982;SDS011;14442;50.196;8.096;2022-07-23T13:45:07;3.40;;;3.20;;
15982;SDS011;14442;50.196;8.096;2022-07-23T13:47:34;3.67;;;3.37;;
15982;SDS011;14442;50.196;8.096;2022-07-23T13:50:01;4.00;;;3.60;;
15982;SDS011;14442;50.196;8.096;2022-07-23T13:52:28;5.53;;;3.10;;
15982;SDS011;14442;50.196;8.096;2022-07-23T13:54:56;3.47;;;3.20;;
15982;SDS011;14442;50.196;8.096;2022-07-23T13:57:24;3.97;;;3.67;;
15982;SDS011;14442;50.196;8.096;2022-07-23T13:59:51;3.60;;;3.40;;
15982;SDS011;14442;50.196;8.096;2022-07-23T14:02:18;3.63;;;3.33;;
15982;SDS011;14442;50.196;8.096;2022-07-23T14:04:45;3.10;;;2.90;;
15982;SDS011;14442;50.196;8.096;2022-07-23T14:07:11;3.73;;;3.43;;
15982;SDS011;14442;50.196;8.096;2022-07-23T14:09:38;3.60;;;3.30;;
15982;SDS011;14442;50.196;8.096;2022-07-23T14:12:05;3.53;;;3.33;;
15982;SDS011;14442;50.196;8.096;2022-07-23T14:14:34;4.17;;;3.13;;
15982;SDS011;14442;50.196;8.096;2022-07-23T14:17:01;3.50;;;3.20;;
15982;SDS011;14442;50.196;8.096;2022-07-23T14:19:28;3.33;;;3.13;;
15982;SDS011;14442;50.196;8.096;2022-07-23T14:21:55;3.13;;;2.93;;
15982;SDS011;14442;50.196;8.096;2022-07-23T14:24:21;5.53;;;2.93;;
15982;SDS011;14442;50.196;8.096;2022-07-23T14:26:48;3.40;;;3.10;;
15982;SDS011;14442;50.196;8.096;2022-07-23T14:29:15;3.17;;;2.97;;
15982;SDS011;14442;50.196;8.096;2022-07-23T14:31:43;4.40;;;3.27;;
15982;SDS011;14442;50.196;8.096;2022-07-23T14:34:10;4.20;;;3.20;;
15982;SDS011;14442;50.196;8.096;2022-07-23T14:36:37;6.33;;;3.23;;
15982;SDS011;14442;50.196;8.096;2022-07-23T14:39:04;8.30;;;3.50;;
15982;SDS011;14442;50.196;8.096;2022-07-23T14:41:33;7.33;;;3.33;;
15982;SDS011;14442;50.196;8.096;2022-07-23T14:44:00;11.37;;;3.37;;
15982;SDS011;14442;50.196;8.096;2022-07-23T14:46:27;4.80;;;2.90;;
15982;SDS011;14442;50.196;8.096;2022-07-23T14:48:55;9.73;;;3.20;;
15982;SDS011;14442;50.196;8.096;2022-07-23T14:51:22;8.73;;;3.50;;
15982;SDS011;14442;50.196;8.096;2022-07-23T14:53:49;8.87;;;3.33;;
15982;SDS011;14442;50.196;8.096;2022-07-23T14:56:16;4.73;;;2.97;;
15982;SDS011;14442;50.196;8.096;2022-07-23T14:58:42;7.10;;;3.57;;